createdAt,value
2018-08-30T00:01:31.429Z,30.43
2018-08-30T00:04:00.138Z,30.30
2018-08-30T00:06:29.678Z,29.00
2018-08-30T00:08:58.505Z,33.90
2018-08-30T00:11:27.841Z,31.43
2018-08-30T00:13:58.283Z,36.33
2018-08-30T00:16:27.789Z,35.20
2018-08-30T00:18:57.931Z,27.53
2018-08-30T00:21:27.917Z,28.50
2018-08-30T00:23:59.313Z,33.33
2018-08-30T00:26:29.414Z,26.60
2018-08-30T00:28:59.149Z,36.43
2018-08-30T00:31:29.603Z,30.97
2018-08-30T00:33:59.183Z,30.20
2018-08-30T00:36:27.969Z,30.40
2018-08-30T00:38:58.040Z,26.63
2018-08-30T00:41:27.581Z,24.13
2018-08-30T00:43:56.590Z,35.97
2018-08-30T00:46:25.377Z,26.37
2018-08-30T00:48:55.436Z,28.10
2018-08-30T00:51:24.391Z,29.43
2018-08-30T00:53:54.033Z,27.63
2018-08-30T00:56:24.157Z,27.70
2018-08-30T00:58:53.416Z,38.83
2018-08-30T01:01:22.230Z,29.43
2018-08-30T01:03:51.809Z,36.87
2018-08-30T01:06:21.585Z,31.97
2018-08-30T01:08:52.456Z,37.97
2018-08-30T01:11:21.375Z,25.90
2018-08-30T01:13:50.848Z,37.30
2018-08-30T01:16:19.984Z,38.87
2018-08-30T01:18:48.809Z,24.73
2018-08-30T01:21:19.184Z,29.07
2018-08-30T01:23:48.739Z,27.00
2018-08-30T01:26:18.885Z,31.93
2018-08-30T01:28:48.557Z,28.20
2018-08-30T01:31:18.039Z,30.13
2018-08-30T01:33:47.917Z,30.10
2018-08-30T01:36:16.873Z,28.80
2018-08-30T01:38:45.738Z,28.60
2018-08-30T01:41:15.734Z,32.90
2018-08-30T01:43:46.224Z,31.67
2018-08-30T01:46:16.197Z,33.00
2018-08-30T01:48:45.859Z,31.20
2018-08-30T01:51:15.243Z,31.80
2018-08-30T01:53:44.747Z,26.87
2018-08-30T01:56:14.282Z,34.27
2018-08-30T01:58:43.963Z,27.53
2018-08-30T02:01:12.944Z,27.17
2018-08-30T02:03:42.077Z,34.60
2018-08-30T02:06:11.008Z,31.70
2018-08-30T02:08:41.416Z,27.93
2018-08-30T02:11:11.226Z,33.90
2018-08-30T02:13:41.541Z,28.77
2018-08-30T02:16:11.899Z,30.90
2018-08-30T02:18:40.990Z,33.00
2018-08-30T02:21:10.800Z,31.37
2018-08-30T02:23:40.748Z,32.00
2018-08-30T02:26:10.163Z,34.50
2018-08-30T02:28:40.129Z,30.73
2018-08-30T02:31:10.082Z,29.57
2018-08-30T02:33:40.174Z,34.40
2018-08-30T02:36:10.943Z,29.10
2018-08-30T02:38:40.933Z,32.80
2018-08-30T02:41:09.833Z,35.33
2018-08-30T02:43:40.289Z,29.27
2018-08-30T02:46:10.723Z,42.37
2018-08-30T02:48:40.457Z,32.33
2018-08-30T02:51:09.677Z,32.07
2018-08-30T02:53:38.616Z,30.87
2018-08-30T02:56:07.401Z,32.60
2018-08-30T02:58:36.796Z,25.37
2018-08-30T03:01:06.179Z,45.40
2018-08-30T03:03:36.128Z,32.20
2018-08-30T03:06:05.185Z,29.77
2018-08-30T03:08:33.978Z,39.73
2018-08-30T03:11:03.693Z,32.53
2018-08-30T03:13:33.301Z,27.30
2018-08-30T03:16:03.672Z,31.33
2018-08-30T03:18:32.649Z,35.80
2018-08-30T03:21:02.599Z,33.60
2018-08-30T03:23:32.337Z,32.07
2018-08-30T03:26:02.177Z,32.60
2018-08-30T03:28:31.688Z,33.13
2018-08-30T03:31:01.307Z,58.93
2018-08-30T03:33:32.086Z,30.50
2018-08-30T03:36:00.772Z,36.07
2018-08-30T03:38:31.504Z,44.70
2018-08-30T03:41:01.445Z,33.00
2018-08-30T03:43:30.327Z,34.97
2018-08-30T03:46:01.070Z,26.43
2018-08-30T03:48:29.946Z,26.17
2018-08-30T03:50:59.950Z,29.00
2018-08-30T03:53:30.074Z,30.03
2018-08-30T03:56:00.099Z,42.63
2018-08-30T03:58:29.513Z,27.80
2018-08-30T04:00:58.215Z,30.97
2018-08-30T04:03:28.486Z,37.10
2018-08-30T04:05:58.446Z,44.73
2018-08-30T04:08:27.141Z,32.33
2018-08-30T04:10:56.512Z,30.87
2018-08-30T04:13:26.254Z,30.60
2018-08-30T04:15:56.607Z,29.27
2018-08-30T04:18:26.668Z,36.57
2018-08-30T04:20:56.114Z,34.07
2018-08-30T04:23:25.812Z,31.83
2018-08-30T04:25:55.802Z,30.87
2018-08-30T04:28:25.128Z,30.17
2018-08-30T04:30:54.668Z,31.23
2018-08-30T04:33:24.327Z,43.30
2018-08-30T04:35:55.488Z,44.23
2018-08-30T04:38:24.921Z,34.07
2018-08-30T04:40:54.925Z,36.00
2018-08-30T04:43:24.093Z,32.10
2018-08-30T04:45:53.881Z,30.50
2018-08-30T04:48:24.448Z,37.80
2018-08-30T04:50:54.648Z,30.10
2018-08-30T04:53:24.112Z,31.13
2018-08-30T04:55:54.846Z,37.00
2018-08-30T04:58:24.511Z,34.87
2018-08-30T05:00:54.376Z,32.90
2018-08-30T05:03:24.738Z,30.43
2018-08-30T05:05:53.947Z,35.20
2018-08-30T05:08:24.255Z,42.70
2018-08-30T05:10:54.499Z,50.20
2018-08-30T05:13:24.300Z,38.33
2018-08-30T05:15:53.649Z,38.93
2018-08-30T05:18:23.213Z,43.27
2018-08-30T05:20:53.003Z,34.00
2018-08-30T05:23:22.117Z,31.07
2018-08-30T05:25:52.138Z,36.37
2018-08-30T05:28:22.470Z,30.03
2018-08-30T05:30:55.621Z,30.63
2018-08-30T05:33:25.256Z,36.30
2018-08-30T05:35:55.433Z,31.50
2018-08-30T05:38:25.313Z,32.00
2018-08-30T05:40:54.507Z,32.47
2018-08-30T05:43:23.767Z,59.80
2018-08-30T05:45:53.261Z,35.93
2018-08-30T05:48:23.592Z,37.87
2018-08-30T05:50:53.041Z,44.57
2018-08-30T05:53:21.923Z,37.63
2018-08-30T05:55:52.669Z,35.80
2018-08-30T05:58:22.230Z,46.97
2018-08-30T06:00:52.391Z,51.37
2018-08-30T06:03:21.388Z,35.93
2018-08-30T06:05:50.517Z,49.63
2018-08-30T06:08:19.620Z,32.90
2018-08-30T06:10:48.737Z,31.70
2018-08-30T06:13:18.274Z,33.30
2018-08-30T06:15:47.937Z,36.53
2018-08-30T06:18:18.626Z,39.33
2018-08-30T06:20:48.275Z,40.83
2018-08-30T06:23:18.840Z,43.93
2018-08-30T06:25:48.839Z,36.90
2018-08-30T06:28:18.429Z,40.83
2018-08-30T06:30:47.168Z,43.27
2018-08-30T06:33:16.051Z,32.10
2018-08-30T06:35:45.359Z,34.03
2018-08-30T06:38:14.938Z,42.83
2018-08-30T06:40:43.853Z,35.53
2018-08-30T06:43:12.952Z,33.50
2018-08-30T06:45:42.485Z,33.20
2018-08-30T06:48:11.990Z,35.00
2018-08-30T06:50:41.053Z,33.93
2018-08-30T06:53:11.911Z,39.13
2018-08-30T06:55:41.100Z,40.70
2018-08-30T06:58:10.196Z,32.40
2018-08-30T07:00:39.256Z,34.07
2018-08-30T07:03:08.263Z,35.00
2018-08-30T07:05:37.374Z,38.53
2018-08-30T07:08:07.527Z,45.70
2018-08-30T07:10:38.328Z,48.47
2018-08-30T07:13:07.783Z,41.53
2018-08-30T07:15:37.918Z,39.83
2018-08-30T07:18:07.558Z,34.23
2018-08-30T07:20:37.620Z,40.40
2018-08-30T07:23:07.031Z,37.40
2018-08-30T07:25:36.703Z,36.13
2018-08-30T07:28:06.040Z,46.37
2018-08-30T07:30:35.825Z,39.60
2018-08-30T07:33:05.679Z,35.43
2018-08-30T07:35:36.297Z,39.70
2018-08-30T07:38:05.200Z,41.23
2018-08-30T07:40:34.005Z,33.77
2018-08-30T07:43:03.478Z,36.43
2018-08-30T07:45:32.624Z,40.20
2018-08-30T07:48:02.114Z,55.33
2018-08-30T07:50:31.342Z,40.03
2018-08-30T07:53:01.404Z,42.20
2018-08-30T07:55:30.201Z,42.53
2018-08-30T07:58:00.408Z,38.73
2018-08-30T08:00:32.003Z,38.27
2018-08-30T08:03:01.821Z,41.57
2018-08-30T08:05:32.765Z,37.83
2018-08-30T08:08:02.806Z,51.93
2018-08-30T08:10:31.997Z,37.97
2018-08-30T08:13:01.484Z,40.73
2018-08-30T08:15:31.627Z,40.43
2018-08-30T08:18:01.430Z,40.00
2018-08-30T08:20:31.208Z,44.20
2018-08-30T08:23:01.951Z,36.40
2018-08-30T08:25:32.224Z,38.20
2018-08-30T08:28:02.289Z,40.40
2018-08-30T08:30:32.140Z,38.90
2018-08-30T08:33:02.884Z,39.20
2018-08-30T08:35:35.007Z,39.07
2018-08-30T08:38:05.773Z,43.73
2018-08-30T08:40:34.870Z,44.50
2018-08-30T08:43:05.051Z,43.57
2018-08-30T08:45:33.774Z,44.20
2018-08-30T08:48:02.939Z,44.27
2018-08-30T08:53:23.159Z,44.63
2018-08-30T08:55:52.976Z,46.40
2018-08-30T08:58:23.120Z,41.27
2018-08-30T09:00:52.381Z,40.93
2018-08-30T09:03:21.802Z,51.53
2018-08-30T09:05:51.177Z,53.30
2018-08-30T09:08:20.587Z,52.27
2018-08-30T09:10:49.611Z,47.53
2018-08-30T09:13:18.618Z,41.03
2018-08-30T09:15:47.989Z,50.73
2018-08-30T09:18:17.968Z,47.73
2018-08-30T09:20:47.236Z,43.57
2018-08-30T09:23:17.389Z,37.63
2018-08-30T09:25:46.744Z,42.97
2018-08-30T09:28:15.646Z,46.60
2018-08-30T09:30:44.965Z,45.17
2018-08-30T09:33:13.838Z,41.43
2018-08-30T09:35:42.832Z,41.30
2018-08-30T09:38:12.758Z,52.43
2018-08-30T09:40:42.733Z,47.60
2018-08-30T09:43:12.996Z,52.83
2018-08-30T09:45:43.594Z,51.93
2018-08-30T09:48:12.815Z,52.87
2018-08-30T09:50:43.852Z,50.50
2018-08-30T09:53:12.930Z,47.10
2018-08-30T09:55:42.762Z,50.90
2018-08-30T09:58:12.331Z,45.80
2018-08-30T10:00:46.519Z,46.30
2018-08-30T10:03:15.841Z,46.80
2018-08-30T10:05:44.968Z,58.50
2018-08-30T10:08:14.627Z,49.13
2018-08-30T10:10:43.910Z,54.43
2018-08-30T10:13:13.503Z,46.47
2018-08-30T10:15:42.769Z,46.97
2018-08-30T10:18:12.094Z,53.97
2018-08-30T10:20:41.166Z,57.67
2018-08-30T10:23:10.670Z,51.87
2018-08-30T10:25:39.980Z,56.03
2018-08-30T10:28:09.141Z,60.40
2018-08-30T10:30:39.553Z,56.70
2018-08-30T10:33:08.768Z,60.13
2018-08-30T10:35:38.938Z,53.70
2018-08-30T10:38:08.128Z,50.93
2018-08-30T10:40:37.232Z,57.93
2018-08-30T10:43:06.408Z,50.40
2018-08-30T10:45:36.178Z,49.57
2018-08-30T10:48:05.151Z,53.00
2018-08-30T10:50:34.943Z,46.50
2018-08-30T10:53:03.946Z,51.17
2018-08-30T10:55:33.347Z,49.00
2018-08-30T10:58:02.497Z,55.67
2018-08-30T11:00:34.479Z,53.67
2018-08-30T11:03:03.963Z,53.30
2018-08-30T11:05:34.333Z,58.60
2018-08-30T11:08:04.153Z,49.70
2018-08-30T11:10:34.699Z,47.40
2018-08-30T11:13:04.298Z,50.57
2018-08-30T11:15:34.427Z,45.20
2018-08-30T11:18:03.717Z,45.30
2018-08-30T11:20:33.462Z,57.70
2018-08-30T11:23:04.808Z,55.43
2018-08-30T11:25:34.352Z,52.47
2018-08-30T11:28:04.694Z,50.93
2018-08-30T11:30:34.965Z,43.13
2018-08-30T11:33:03.930Z,42.60
2018-08-30T11:35:33.052Z,44.17
2018-08-30T11:38:02.258Z,33.30
2018-08-30T11:40:32.144Z,41.20
2018-08-30T11:43:01.821Z,34.13
2018-08-30T11:45:30.929Z,40.33
2018-08-30T11:48:00.800Z,26.63
2018-08-30T11:50:31.157Z,31.10
2018-08-30T11:53:00.869Z,35.63
2018-08-30T11:55:30.445Z,24.83
2018-08-30T11:58:00.222Z,25.10
2018-08-30T12:00:29.658Z,25.03
2018-08-30T12:03:00.055Z,19.50
2018-08-30T12:05:29.859Z,21.10
2018-08-30T12:07:59.720Z,18.83
2018-08-30T12:10:29.415Z,17.90
2018-08-30T12:12:58.723Z,19.83
2018-08-30T12:15:28.869Z,20.63
2018-08-30T12:17:59.417Z,19.00
2018-08-30T12:20:29.159Z,21.30
2018-08-30T12:22:58.110Z,18.23
2018-08-30T12:25:27.331Z,19.90
2018-08-30T12:27:57.159Z,22.33
2018-08-30T12:30:27.174Z,24.50
2018-08-30T12:32:57.162Z,26.37
2018-08-30T12:35:26.752Z,23.13
2018-08-30T12:37:57.277Z,27.03
2018-08-30T12:40:27.365Z,29.57
2018-08-30T12:42:57.190Z,28.73
2018-08-30T12:45:26.017Z,27.43
2018-08-30T12:47:55.799Z,29.40
2018-08-30T12:50:25.388Z,28.00
2018-08-30T12:52:54.585Z,26.90
2018-08-30T12:55:23.739Z,28.20
2018-08-30T12:57:52.782Z,29.00
2018-08-30T13:00:23.675Z,27.00
2018-08-30T13:02:53.039Z,26.40
2018-08-30T13:05:22.610Z,30.70
2018-08-30T13:07:51.849Z,30.13
2018-08-30T13:10:21.237Z,27.10
2018-08-30T13:12:50.639Z,27.77
2018-08-30T13:15:20.566Z,29.27
2018-08-30T13:17:51.026Z,27.50
2018-08-30T13:20:20.003Z,29.00
2018-08-30T13:22:49.454Z,27.67
2018-08-30T13:25:19.316Z,25.60
2018-08-30T13:27:49.368Z,29.83
2018-08-30T13:30:20.354Z,31.03
2018-08-30T13:32:50.289Z,31.23
2018-08-30T13:35:19.783Z,27.27
2018-08-30T13:37:49.390Z,23.63
2018-08-30T13:40:19.169Z,24.57
2018-08-30T13:42:48.216Z,28.83
2018-08-30T13:45:18.703Z,25.83
2018-08-30T13:47:50.761Z,27.90
2018-08-30T13:50:20.330Z,24.77
2018-08-30T13:52:49.956Z,26.70
2018-08-30T13:55:19.050Z,24.37
2018-08-30T13:57:49.141Z,27.17
2018-08-30T14:00:18.723Z,25.50
2018-08-30T14:02:48.495Z,25.90
2018-08-30T14:05:18.063Z,28.40
2018-08-30T14:07:47.898Z,23.07
2018-08-30T14:10:16.841Z,23.90
2018-08-30T14:12:46.452Z,30.30
2018-08-30T14:15:16.308Z,26.10
2018-08-30T14:17:45.953Z,26.60
2018-08-30T14:20:15.534Z,28.70
2018-08-30T14:22:45.850Z,27.70
2018-08-30T14:25:14.825Z,24.07
2018-08-30T14:27:44.794Z,28.07
2018-08-30T14:30:14.935Z,29.43
2018-08-30T14:32:44.461Z,24.47
2018-08-30T14:35:13.781Z,23.37
2018-08-30T14:37:43.435Z,28.83
2018-08-30T14:40:13.540Z,25.30
2018-08-30T14:42:44.266Z,31.33
2018-08-30T14:45:13.754Z,27.40
2018-08-30T14:47:42.980Z,29.43
2018-08-30T14:50:12.449Z,26.43
2018-08-30T14:52:41.902Z,28.77
2018-08-30T14:55:11.384Z,29.13
2018-08-30T14:57:41.421Z,25.17
2018-08-30T15:00:11.245Z,27.53
2018-08-30T15:02:40.738Z,28.50
2018-08-30T15:05:10.921Z,24.67
2018-08-30T15:07:40.565Z,27.93
2018-08-30T15:10:09.820Z,28.13
2018-08-30T15:12:39.380Z,27.77
2018-08-30T15:15:09.510Z,30.93
2018-08-30T15:17:38.472Z,25.20
2018-08-30T15:20:08.401Z,23.43
2018-08-30T15:22:38.142Z,28.80
2018-08-30T15:25:08.656Z,26.23
2018-08-30T15:27:37.586Z,29.00
2018-08-30T15:30:07.272Z,22.00
2018-08-30T15:32:36.769Z,26.47
2018-08-30T15:35:06.602Z,21.83
2018-08-30T15:37:35.722Z,29.33
2018-08-30T15:40:05.881Z,26.87
2018-08-30T15:42:35.444Z,27.60
2018-08-30T15:45:05.958Z,22.50
2018-08-30T15:47:36.382Z,25.27
2018-08-30T15:50:06.194Z,26.93
2018-08-30T15:52:35.382Z,25.20
2018-08-30T15:55:05.195Z,31.43
2018-08-30T15:57:34.699Z,29.00
2018-08-30T16:00:03.681Z,26.03
2018-08-30T16:02:33.738Z,28.87
2018-08-30T16:05:02.872Z,24.20
2018-08-30T16:07:32.384Z,25.67
2018-08-30T16:10:02.820Z,24.27
2018-08-30T16:12:32.846Z,23.90
2018-08-30T16:15:03.225Z,25.07
2018-08-30T16:17:32.614Z,26.60
2018-08-30T16:20:02.382Z,25.63
2018-08-30T16:22:42.646Z,23.93
2018-08-30T16:25:11.841Z,26.10
2018-08-30T16:27:41.123Z,25.50
2018-08-30T16:30:11.490Z,23.40
2018-08-30T16:32:42.342Z,35.70
2018-08-30T16:35:12.100Z,23.13
2018-08-30T16:37:41.934Z,21.10
2018-08-30T16:40:12.974Z,26.93
2018-08-30T16:42:42.848Z,25.60
2018-08-30T16:45:12.507Z,23.73
2018-08-30T16:47:41.759Z,24.60
2018-08-30T16:50:11.651Z,24.60
2018-08-30T16:52:42.202Z,31.73
2018-08-30T16:55:12.940Z,23.23
2018-08-30T16:57:42.066Z,20.17
2018-08-30T17:00:11.267Z,26.87
2018-08-30T17:02:41.098Z,22.07
2018-08-30T17:05:11.027Z,22.63
2018-08-30T17:07:40.298Z,24.70
2018-08-30T17:10:10.761Z,21.17
2018-08-30T17:12:39.696Z,19.37
2018-08-30T17:15:08.687Z,14.93
2018-08-30T17:17:39.022Z,17.10
2018-08-30T17:20:11.207Z,15.50
2018-08-30T17:22:41.149Z,14.93
2018-08-30T17:25:10.374Z,15.47
2018-08-30T17:27:39.712Z,16.83
2018-08-30T17:30:09.145Z,22.23
2018-08-30T17:32:38.623Z,18.67
2018-08-30T17:35:08.976Z,22.27
2018-08-30T17:37:38.330Z,18.70
2018-08-30T17:40:07.814Z,20.13
2018-08-30T17:42:37.535Z,23.53
2018-08-30T17:45:07.327Z,24.30
2018-08-30T17:47:37.169Z,23.90
2018-08-30T17:50:06.717Z,23.00
2018-08-30T17:52:36.972Z,25.70
2018-08-30T17:55:08.234Z,24.43
2018-08-30T17:57:37.922Z,25.30
2018-08-30T18:00:08.866Z,22.70
2018-08-30T18:02:38.589Z,21.77
2018-08-30T18:05:07.921Z,28.60
2018-08-30T18:07:37.103Z,21.30
2018-08-30T18:10:07.784Z,21.47
2018-08-30T18:12:37.059Z,20.83
2018-08-30T18:15:07.101Z,21.53
2018-08-30T18:17:36.028Z,20.60
2018-08-30T18:20:05.787Z,21.03
2018-08-30T18:22:36.482Z,19.00
2018-08-30T18:25:06.679Z,18.53
2018-08-30T18:27:35.969Z,20.83
2018-08-30T18:30:05.094Z,18.50
2018-08-30T18:32:34.852Z,19.33
2018-08-30T18:35:04.617Z,23.57
2018-08-30T18:37:34.037Z,22.80
2018-08-30T18:40:04.366Z,20.97
2018-08-30T18:42:34.590Z,17.10
2018-08-30T18:45:04.586Z,22.37
2018-08-30T18:47:33.667Z,23.50
2018-08-30T18:50:03.102Z,22.87
2018-08-30T18:52:33.418Z,20.57
2018-08-30T18:55:03.353Z,21.70
2018-08-30T18:57:33.737Z,20.60
2018-08-30T19:00:04.519Z,20.93
2018-08-30T19:02:34.301Z,22.77
2018-08-30T19:05:03.308Z,22.83
2018-08-30T19:07:32.945Z,22.70
2018-08-30T19:10:03.251Z,22.63
2018-08-30T19:12:34.465Z,22.10
2018-08-30T19:15:09.402Z,19.97
2018-08-30T19:17:43.910Z,21.73
2018-08-30T19:20:13.752Z,21.40
2018-08-30T19:22:43.658Z,21.03
2018-08-30T19:25:17.097Z,21.13
2018-08-30T19:27:47.726Z,17.07
2018-08-30T19:30:21.717Z,18.90
2018-08-30T19:32:52.309Z,19.07
2018-08-30T19:36:26.545Z,18.00
2018-08-30T19:38:57.425Z,21.10
2018-08-30T19:41:26.742Z,18.87
2018-08-30T19:43:57.224Z,22.00
2018-08-30T19:46:26.531Z,20.37
2018-08-30T19:48:57.000Z,17.97
2018-08-30T19:51:26.710Z,20.80
2018-08-30T19:53:56.301Z,17.37
2018-08-30T19:56:26.183Z,17.93
2018-08-30T19:58:55.819Z,19.10
2018-08-30T20:01:25.257Z,18.03
2018-08-30T20:03:55.601Z,23.23
2018-08-30T20:06:24.965Z,18.93
2018-08-30T20:08:54.110Z,21.00
2018-08-30T20:11:29.451Z,21.40
2018-08-30T20:13:58.487Z,17.87
2018-08-30T20:16:28.286Z,21.53
2018-08-30T20:18:57.759Z,17.87
2018-08-30T20:21:27.168Z,25.43
2018-08-30T20:23:57.431Z,20.90
2018-08-30T20:26:27.110Z,23.47
2018-08-30T20:28:56.841Z,19.70
2018-08-30T20:31:26.135Z,16.70
2018-08-30T20:33:55.541Z,18.53
2018-08-30T20:36:25.350Z,20.77
2018-08-30T20:38:54.677Z,20.70
2018-08-30T20:41:24.480Z,19.10
2018-08-30T20:43:54.626Z,17.23
2018-08-30T20:46:24.484Z,30.47
2018-08-30T20:48:55.325Z,22.13
2018-08-30T20:51:24.718Z,19.50
2018-08-30T20:53:53.801Z,18.50
2018-08-30T20:56:23.352Z,22.83
2018-08-30T20:58:53.444Z,19.20
2018-08-30T21:01:24.145Z,20.80
2018-08-30T21:03:54.873Z,19.70
2018-08-30T21:06:24.815Z,18.63
2018-08-30T21:08:53.782Z,20.87
2018-08-30T21:11:23.622Z,24.00
2018-08-30T21:13:53.819Z,17.90
2018-08-30T21:16:23.587Z,28.00
2018-08-30T21:18:52.733Z,18.90
2018-08-30T21:21:22.298Z,33.40
2018-08-30T21:23:52.502Z,27.83
2018-08-30T21:26:22.770Z,21.87
2018-08-30T21:28:52.052Z,19.13
2018-08-30T21:31:21.721Z,21.30
2018-08-30T21:33:51.525Z,24.93
2018-08-30T21:36:21.560Z,19.03
2018-08-30T21:38:50.699Z,24.20
2018-08-30T21:41:20.436Z,24.13
2018-08-30T21:43:50.422Z,28.83
2018-08-30T21:46:20.466Z,23.60
2018-08-30T21:48:50.387Z,20.37
2018-08-30T21:51:19.722Z,21.23
2018-08-30T21:53:49.134Z,25.37
2018-08-30T21:56:18.384Z,41.17
2018-08-30T21:58:48.501Z,38.97
2018-08-30T22:01:18.679Z,24.90
2018-08-30T22:03:49.713Z,17.77
2018-08-30T22:06:19.076Z,27.03
2018-08-30T22:08:48.269Z,25.57
2018-08-30T22:11:18.701Z,17.97
2018-08-30T22:13:48.009Z,32.80
2018-08-30T22:16:17.524Z,25.07
2018-08-30T22:18:46.884Z,17.90
2018-08-30T22:21:16.936Z,17.67
2018-08-30T22:23:45.900Z,18.83
2018-08-30T22:26:15.836Z,31.63
2018-08-30T22:28:45.582Z,29.00
2018-08-30T22:31:15.558Z,23.23
2018-08-30T22:33:45.272Z,24.40
2018-08-30T22:36:14.318Z,32.43
2018-08-30T22:38:43.802Z,31.90
2018-08-30T22:41:12.990Z,16.83
2018-08-30T22:43:43.547Z,23.83
2018-08-30T22:46:13.107Z,17.00
2018-08-30T22:48:43.264Z,16.80
2018-08-30T22:51:12.453Z,24.40
2018-08-30T22:53:41.928Z,19.30
2018-08-30T22:56:11.465Z,29.37
2018-08-30T22:58:41.749Z,19.97
2018-08-30T23:01:11.046Z,18.83
2018-08-30T23:03:40.747Z,23.93
2018-08-30T23:06:10.049Z,19.57
2018-08-30T23:08:39.765Z,18.77
2018-08-30T23:11:08.915Z,19.80
2018-08-30T23:13:39.182Z,18.67
2018-08-30T23:16:08.633Z,27.60
2018-08-30T23:18:38.111Z,20.67
2018-08-30T23:21:07.110Z,21.37
2018-08-30T23:23:36.890Z,18.63
2018-08-30T23:26:05.993Z,22.80
2018-08-30T23:28:35.132Z,35.90
2018-08-30T23:31:04.319Z,25.07
2018-08-30T23:33:34.752Z,27.93
2018-08-30T23:36:04.027Z,16.23
2018-08-30T23:38:34.437Z,16.63
2018-08-30T23:41:03.916Z,18.60
2018-08-30T23:43:33.299Z,22.43
2018-08-30T23:46:02.592Z,17.77
2018-08-30T23:48:32.579Z,16.90
2018-08-30T23:51:01.822Z,27.43
2018-08-30T23:53:31.276Z,18.63
2018-08-30T23:56:00.786Z,18.07
2018-08-30T23:58:40.897Z,23.23
